createdAt,value
2022-11-17T00:03:28.649Z,10.3
2022-11-17T00:17:57.144Z,10.3
2022-11-17T00:32:25.548Z,10.3
2022-11-17T00:46:53.056Z,10.3
2022-11-17T01:01:20.864Z,10.3
2022-11-17T01:15:48.023Z,10.3
2022-11-17T01:30:16.007Z,10.3
2022-11-17T01:44:45.243Z,10.4
2022-11-17T01:59:12.214Z,10.3
2022-11-17T02:13:53.872Z,10.2
2022-11-17T02:28:13.334Z,10.1
2022-11-17T02:42:41.527Z,10.1
2022-11-17T02:57:10.320Z,10
2022-11-17T03:11:39.523Z,10.1
2022-11-17T03:26:05.652Z,10.2
2022-11-17T03:40:36.025Z,10.2
2022-11-17T03:55:02.455Z,10.2
2022-11-17T04:09:28.188Z,10.4
2022-11-17T04:23:56.441Z,10.4
2022-11-17T04:38:24.370Z,10.3
2022-11-17T04:52:51.205Z,10.4
2022-11-17T05:07:20.491Z,10.4
2022-11-17T05:21:47.997Z,10.4
2022-11-17T05:36:17.200Z,10.4
2022-11-17T05:50:45.673Z,10.5
2022-11-17T06:05:21.230Z,10.5
2022-11-17T06:19:44.256Z,10.6
2022-11-17T06:34:13.122Z,10.7
2022-11-17T06:48:41.202Z,10.6
2022-11-17T07:03:09.872Z,10.3
2022-11-17T07:17:38.142Z,10.3
2022-11-17T07:32:06.387Z,10.3
2022-11-17T07:46:35.499Z,10.1
2022-11-17T08:01:04.119Z,10
2022-11-17T08:15:32.397Z,10.1
2022-11-17T08:30:02.817Z,10.2
2022-11-17T08:44:29.402Z,10.3
2022-11-17T08:58:59.416Z,10.5
2022-11-17T09:13:27.929Z,10.6
2022-11-17T09:27:57.066Z,10.6
2022-11-17T09:42:25.832Z,10.9
2022-11-17T09:56:55.046Z,11.3
2022-11-17T10:11:23.399Z,11.3
2022-11-17T10:25:51.902Z,11.1
2022-11-17T10:40:26.729Z,11.2
2022-11-17T10:54:51.060Z,11.2
2022-11-17T11:09:20.598Z,11.7
2022-11-17T11:23:48.776Z,11.6
2022-11-17T11:38:15.731Z,11.5
2022-11-17T11:52:44.076Z,11.6
2022-11-17T12:07:13.141Z,11.4
2022-11-17T12:21:41.681Z,11.8
2022-11-17T12:36:10.621Z,11.1
2022-11-17T12:50:36.304Z,10.6
2022-11-17T13:05:03.231Z,9.7
2022-11-17T13:19:30.805Z,9.8
2022-11-17T13:33:58.886Z,10.1
2022-11-17T13:48:27.939Z,9.6
2022-11-17T14:02:54.990Z,9.3
2022-11-17T14:17:23.202Z,9.3
2022-11-17T14:31:51.173Z,9.7
2022-11-17T14:46:18.984Z,10
2022-11-17T15:00:47.384Z,10.4
2022-11-17T15:15:14.738Z,10.4
2022-11-17T15:29:42.499Z,10.2
2022-11-17T15:44:11.400Z,11.5
2022-11-17T15:58:36.913Z,11.4
2022-11-17T16:13:04.530Z,11.2
2022-11-17T16:27:31.389Z,11
2022-11-17T16:41:59.757Z,10.7
2022-11-17T16:56:26.524Z,10.5
2022-11-17T17:10:54.978Z,10.4
2022-11-17T17:25:20.338Z,10.5
2022-11-17T17:39:48.437Z,10.2
2022-11-17T17:54:16.355Z,10
2022-11-17T18:08:53.184Z,10
2022-11-17T18:23:17.026Z,9.9
2022-11-17T18:37:45.310Z,10
2022-11-17T18:52:13.092Z,10.3
2022-11-17T19:06:42.543Z,10.4
2022-11-17T19:21:11.147Z,10.3
2022-11-17T19:35:39.717Z,10.3
2022-11-17T19:50:07.023Z,10.2
2022-11-17T20:04:36.109Z,9.9
2022-11-17T20:19:03.102Z,9.9
2022-11-17T20:33:31.007Z,10
2022-11-17T20:47:58.396Z,9.8
2022-11-17T21:02:27.704Z,9.9
2022-11-17T21:16:54.189Z,9.9
2022-11-17T21:31:22.888Z,9.9
2022-11-17T21:45:50.670Z,9.7
2022-11-17T22:00:18.825Z,9.7
2022-11-17T22:14:47.781Z,9.9
2022-11-17T22:29:17.436Z,9.6
2022-11-17T22:43:44.516Z,9.8
2022-11-17T22:58:13.694Z,9.9
2022-11-17T23:12:40.961Z,9.6
2022-11-17T23:27:07.384Z,9.6
2022-11-17T23:41:35.982Z,9.5
2022-11-17T23:56:04.178Z,9.4
